createdAt,value
2018-02-09T00:00:49.045Z,85.43
2018-02-09T00:03:16.569Z,74.07
2018-02-09T00:05:44.178Z,63.03
2018-02-09T00:08:11.701Z,83.70
2018-02-09T00:10:40.006Z,72.20
2018-02-09T00:13:07.538Z,70.72
2018-02-09T00:15:35.850Z,61.40
2018-02-09T00:18:03.381Z,61.53
2018-02-09T00:20:31.682Z,69.35
2018-02-09T00:22:59.203Z,68.80
2018-02-09T00:25:26.821Z,75.00
2018-02-09T00:27:54.345Z,71.95
2018-02-09T00:30:22.657Z,71.05
2018-02-09T00:32:50.178Z,62.05
2018-02-09T00:35:18.482Z,71.40
2018-02-09T00:37:46.002Z,61.58
2018-02-09T00:40:13.537Z,73.43
2018-02-09T00:42:41.053Z,83.97
2018-02-09T00:45:08.574Z,69.18
2018-02-09T00:47:36.109Z,73.53
2018-02-09T00:50:03.632Z,76.62
2018-02-09T00:52:31.178Z,70.80
2018-02-09T00:54:59.464Z,74.55
2018-02-09T00:57:27.770Z,75.37
2018-02-09T00:59:55.328Z,72.40
2018-02-09T01:02:22.865Z,61.53
2018-02-09T01:04:51.144Z,54.60
2018-02-09T01:07:18.690Z,55.67
2018-02-09T01:09:47.006Z,65.30
2018-02-09T01:12:14.578Z,64.45
2018-02-09T01:14:42.102Z,56.83
2018-02-09T01:17:10.417Z,69.07
2018-02-09T01:19:37.933Z,71.05
2018-02-09T01:22:06.245Z,75.65
2018-02-09T01:24:33.769Z,72.97
2018-02-09T01:27:02.085Z,89.75
2018-02-09T01:29:29.654Z,69.80
2018-02-09T01:31:57.310Z,64.57
2018-02-09T01:34:24.834Z,62.47
2018-02-09T01:36:53.136Z,64.12
2018-02-09T01:39:20.657Z,57.78
2018-02-09T01:41:48.192Z,68.72
2018-02-09T01:44:15.716Z,70.00
2018-02-09T01:46:43.266Z,64.75
2018-02-09T01:49:10.846Z,71.18
2018-02-09T01:51:38.385Z,76.15
2018-02-09T01:54:05.919Z,72.35
2018-02-09T01:56:33.461Z,75.32
2018-02-09T01:59:00.981Z,83.00
2018-02-09T02:01:28.522Z,91.22
2018-02-09T02:03:56.809Z,86.65
2018-02-09T02:06:24.345Z,77.45
2018-02-09T02:08:52.665Z,81.85
2018-02-09T02:11:20.210Z,75.25
2018-02-09T02:13:47.735Z,64.72
2018-02-09T02:16:15.278Z,80.78
2018-02-09T02:18:42.798Z,90.55
2018-02-09T02:21:10.337Z,99.55
2018-02-09T02:23:38.629Z,74.62
2018-02-09T02:26:06.171Z,82.93
2018-02-09T02:28:34.457Z,82.72
2018-02-09T02:31:01.993Z,77.28
2018-02-09T02:33:29.522Z,77.78
2018-02-09T02:35:57.057Z,74.80
2018-02-09T02:38:24.626Z,84.45
2018-02-09T02:40:52.165Z,69.03
2018-02-09T02:43:19.706Z,63.67
2018-02-09T02:45:47.988Z,67.25
2018-02-09T02:48:16.298Z,81.25
2018-02-09T02:50:43.818Z,72.90
2018-02-09T02:53:12.133Z,63.63
2018-02-09T02:55:39.659Z,63.70
2018-02-09T02:58:07.969Z,77.00
2018-02-09T03:00:35.489Z,64.18
2018-02-09T03:03:03.030Z,65.05
2018-02-09T03:05:30.561Z,64.75
2018-02-09T03:07:58.092Z,67.30
2018-02-09T03:10:26.383Z,61.80
2018-02-09T03:12:53.934Z,60.67
2018-02-09T03:15:22.222Z,74.68
2018-02-09T03:17:49.756Z,74.40
2018-02-09T03:20:18.066Z,70.20
2018-02-09T03:22:45.639Z,70.85
2018-02-09T03:25:13.179Z,62.62
2018-02-09T03:27:41.465Z,82.90
2018-02-09T03:30:09.005Z,68.93
2018-02-09T03:32:36.530Z,72.00
2018-02-09T03:35:04.067Z,89.82
2018-02-09T03:37:31.589Z,99.70
2018-02-09T03:39:59.897Z,93.60
2018-02-09T03:42:27.421Z,74.40
2018-02-09T03:44:54.961Z,83.87
2018-02-09T03:47:22.477Z,74.53
2018-02-09T03:49:50.019Z,64.85
2018-02-09T03:52:18.300Z,67.37
2018-02-09T03:54:46.611Z,86.10
2018-02-09T03:57:14.173Z,66.05
2018-02-09T03:59:41.712Z,89.03
2018-02-09T04:02:09.234Z,73.93
2018-02-09T04:04:36.757Z,76.10
2018-02-09T04:07:04.293Z,83.07
2018-02-09T04:09:31.818Z,82.18
2018-02-09T04:11:59.358Z,79.43
2018-02-09T04:14:26.881Z,83.45
2018-02-09T04:16:54.432Z,72.07
2018-02-09T04:19:21.958Z,73.82
2018-02-09T04:21:49.506Z,58.03
2018-02-09T04:24:17.020Z,85.40
2018-02-09T04:26:44.568Z,66.95
2018-02-09T04:29:12.858Z,70.40
2018-02-09T04:31:40.405Z,80.55
2018-02-09T04:34:08.693Z,98.47
2018-02-09T04:36:36.237Z,97.43
2018-02-09T04:39:04.555Z,96.65
2018-02-09T04:41:32.082Z,113.35
2018-02-09T04:44:00.398Z,111.32
2018-02-09T04:46:27.928Z,122.90
2018-02-09T04:48:55.471Z,112.40
2018-02-09T04:51:23.761Z,121.03
2018-02-09T04:53:52.070Z,106.28
2018-02-09T04:56:19.605Z,117.80
2018-02-09T04:58:47.148Z,115.72
2018-02-09T05:01:15.445Z,120.47
2018-02-09T05:03:42.993Z,122.93
2018-02-09T05:06:11.282Z,125.38
2018-02-09T05:08:38.825Z,132.52
2018-02-09T05:11:07.126Z,119.60
2018-02-09T05:13:34.674Z,112.88
2018-02-09T05:16:02.964Z,119.00
2018-02-09T05:18:30.513Z,109.68
2018-02-09T05:20:58.801Z,119.00
2018-02-09T05:23:26.377Z,120.80
2018-02-09T05:25:53.906Z,111.97
2018-02-09T05:28:22.189Z,116.20
2018-02-09T05:30:50.498Z,120.28
2018-02-09T05:33:18.022Z,137.62
2018-02-09T05:35:46.335Z,129.38
2018-02-09T05:38:13.866Z,132.43
2018-02-09T05:40:42.173Z,143.32
2018-02-09T05:43:09.710Z,131.37
2018-02-09T05:45:37.266Z,172.43
2018-02-09T05:48:05.561Z,154.93
2018-02-09T05:50:33.110Z,142.15
2018-02-09T05:53:00.633Z,143.05
2018-02-09T05:55:28.181Z,148.60
2018-02-09T05:57:55.707Z,147.00
2018-02-09T06:00:23.251Z,149.90
2018-02-09T06:02:50.773Z,151.68
2018-02-09T06:05:18.314Z,128.27
2018-02-09T06:07:45.839Z,147.50
2018-02-09T06:10:13.762Z,143.57
2018-02-09T06:12:44.541Z,136.43
2018-02-09T06:15:12.069Z,107.78
2018-02-09T06:17:39.614Z,123.82
2018-02-09T06:20:07.142Z,136.98
2018-02-09T06:22:34.685Z,131.87
2018-02-09T06:25:02.256Z,133.73
2018-02-09T06:27:29.801Z,110.82
2018-02-09T06:29:57.326Z,132.90
2018-02-09T06:32:24.878Z,130.00
2018-02-09T06:34:52.397Z,138.10
2018-02-09T06:37:19.938Z,157.93
2018-02-09T06:39:47.465Z,128.70
2018-02-09T06:42:15.005Z,114.62
2018-02-09T06:44:42.535Z,131.60
2018-02-09T06:47:10.078Z,143.95
2018-02-09T06:49:37.606Z,126.62
2018-02-09T06:52:05.198Z,136.25
2018-02-09T06:54:32.749Z,142.87
2018-02-09T06:57:01.042Z,142.50
2018-02-09T06:59:28.589Z,148.25
2018-02-09T07:01:56.122Z,123.90
2018-02-09T07:04:23.670Z,115.43
2018-02-09T07:06:51.195Z,136.10
2018-02-09T07:09:18.736Z,123.87
2018-02-09T07:14:20.305Z,121.43
2018-02-09T07:16:48.594Z,130.73
2018-02-09T07:19:16.139Z,133.57
2018-02-09T07:21:44.425Z,111.00
2018-02-09T07:24:11.973Z,115.68
2018-02-09T07:26:40.262Z,105.45
2018-02-09T07:29:08.571Z,107.07
2018-02-09T07:31:36.092Z,128.90
2018-02-09T07:34:04.410Z,124.50
2018-02-09T07:36:31.969Z,119.22
2018-02-09T07:38:59.514Z,128.05
2018-02-09T07:41:27.041Z,111.05
2018-02-09T07:43:54.575Z,115.72
2018-02-09T07:46:22.119Z,105.12
2018-02-09T07:48:49.643Z,127.22
2018-02-09T07:51:17.953Z,119.78
2018-02-09T07:53:45.477Z,118.75
2018-02-09T07:56:13.786Z,112.75
2018-02-09T07:58:41.305Z,123.72
2018-02-09T08:01:08.851Z,119.32
2018-02-09T08:03:36.374Z,112.78
2018-02-09T08:06:03.919Z,111.22
2018-02-09T08:08:31.441Z,87.57
2018-02-09T08:10:58.991Z,87.05
2018-02-09T08:13:26.522Z,139.02
2018-02-09T08:15:54.069Z,111.93
2018-02-09T08:18:21.593Z,97.47
2018-02-09T08:20:49.173Z,113.37
2018-02-09T08:23:17.465Z,107.25
2018-02-09T08:25:44.996Z,115.80
2018-02-09T08:28:12.610Z,133.37
2018-02-09T08:30:40.128Z,109.90
2018-02-09T08:33:08.436Z,112.45
2018-02-09T08:35:35.966Z,112.57
2018-02-09T08:38:04.277Z,116.25
2018-02-09T08:40:31.802Z,138.75
2018-02-09T08:42:59.354Z,125.05
2018-02-09T08:45:26.882Z,119.00
2018-02-09T08:47:54.432Z,119.57
2018-02-09T08:50:21.961Z,120.50
2018-02-09T08:52:50.274Z,127.53
2018-02-09T08:55:17.802Z,130.68
2018-02-09T08:57:46.105Z,121.28
2018-02-09T09:00:13.634Z,110.55
2018-02-09T09:02:41.957Z,114.85
2018-02-09T09:05:09.481Z,121.75
2018-02-09T09:07:37.794Z,128.30
2018-02-09T09:10:05.343Z,124.57
2018-02-09T09:12:32.869Z,130.85
2018-02-09T09:15:00.409Z,118.62
2018-02-09T09:17:27.930Z,116.22
2018-02-09T09:19:55.478Z,114.57
2018-02-09T09:22:23.766Z,108.72
2018-02-09T09:24:51.306Z,97.65
2018-02-09T09:27:19.602Z,135.98
2018-02-09T09:29:47.147Z,124.18
2018-02-09T09:32:15.434Z,133.57
2018-02-09T09:34:43.746Z,118.10
2018-02-09T09:37:11.273Z,134.65
2018-02-09T09:39:39.586Z,142.35
2018-02-09T09:42:07.110Z,134.73
2018-02-09T09:44:35.427Z,134.02
2018-02-09T09:47:02.951Z,155.55
2018-02-09T09:49:31.297Z,137.35
2018-02-09T09:51:58.825Z,127.85
2018-02-09T09:54:26.355Z,132.55
2018-02-09T09:56:54.665Z,143.90
2018-02-09T09:59:22.221Z,146.50
2018-02-09T10:01:49.775Z,157.45
2018-02-09T10:04:17.302Z,130.02
2018-02-09T10:06:45.614Z,155.98
2018-02-09T10:09:13.146Z,139.37
2018-02-09T10:11:41.454Z,143.40
2018-02-09T10:14:08.980Z,154.30
2018-02-09T10:16:36.527Z,135.37
2018-02-09T10:19:04.149Z,122.00
2018-02-09T10:21:31.687Z,133.57
2018-02-09T10:23:59.214Z,133.70
2018-02-09T10:26:26.757Z,138.23
2018-02-09T10:28:54.289Z,127.75
2018-02-09T10:31:21.842Z,111.57
2018-02-09T10:33:49.370Z,101.28
2018-02-09T10:36:16.912Z,101.60
2018-02-09T10:38:44.435Z,99.93
2018-02-09T10:41:11.995Z,102.22
2018-02-09T10:43:39.522Z,128.23
2018-02-09T10:46:07.878Z,130.05
2018-02-09T10:48:35.414Z,126.30
2018-02-09T10:51:02.936Z,124.97
2018-02-09T10:53:31.241Z,120.25
2018-02-09T10:55:58.765Z,104.35
2018-02-09T10:58:27.074Z,127.55
2018-02-09T11:00:58.577Z,132.63
2018-02-09T11:03:26.118Z,128.48
2018-02-09T11:05:53.666Z,114.93
2018-02-09T11:08:21.221Z,125.12
2018-02-09T11:10:49.569Z,131.70
2018-02-09T11:13:17.876Z,104.87
2018-02-09T11:15:45.409Z,118.90
2018-02-09T11:18:13.721Z,125.62
2018-02-09T11:20:41.252Z,111.07
2018-02-09T11:23:09.565Z,105.00
2018-02-09T11:25:37.093Z,124.05
2018-02-09T11:28:05.388Z,102.28
2018-02-09T11:30:32.941Z,88.10
2018-02-09T11:33:00.466Z,105.72
2018-02-09T11:35:28.006Z,106.90
2018-02-09T11:37:55.530Z,102.10
2018-02-09T11:40:23.078Z,91.90
2018-02-09T11:42:50.604Z,129.02
2018-02-09T11:45:18.150Z,140.95
2018-02-09T11:47:45.677Z,139.65
2018-02-09T11:50:13.222Z,122.05
2018-02-09T11:52:40.751Z,122.87
2018-02-09T11:55:08.293Z,105.87
2018-02-09T11:57:35.821Z,93.05
2018-02-09T12:00:03.362Z,88.28
2018-02-09T12:02:30.893Z,96.78
2018-02-09T12:04:58.459Z,87.82
2018-02-09T12:07:26.749Z,126.03
2018-02-09T12:09:55.062Z,125.70
2018-02-09T12:12:22.586Z,105.10
2018-02-09T12:14:50.897Z,130.15
2018-02-09T12:17:18.426Z,109.45
2018-02-09T12:19:46.738Z,136.40
2018-02-09T12:22:14.297Z,114.07
2018-02-09T12:24:41.840Z,115.45
2018-02-09T12:27:09.399Z,102.32
2018-02-09T12:29:36.921Z,89.22
2018-02-09T12:32:04.456Z,96.68
2018-02-09T12:34:31.977Z,105.35
2018-02-09T12:36:59.522Z,106.82
2018-02-09T12:39:27.817Z,101.90
2018-02-09T12:41:55.357Z,121.07
2018-02-09T12:44:23.651Z,123.15
2018-02-09T12:46:51.965Z,110.93
2018-02-09T12:49:19.490Z,106.28
2018-02-09T12:51:47.797Z,114.40
2018-02-09T12:54:15.314Z,97.93
2018-02-09T12:56:43.627Z,95.65
2018-02-09T12:59:11.141Z,91.95
2018-02-09T13:01:38.735Z,82.47
2018-02-09T13:04:06.313Z,102.43
2018-02-09T13:06:33.881Z,85.85
2018-02-09T13:09:01.422Z,101.50
2018-02-09T13:11:28.941Z,117.53
2018-02-09T13:13:56.565Z,113.00
2018-02-09T13:16:24.077Z,91.82
2018-02-09T13:18:52.386Z,112.03
2018-02-09T13:21:19.903Z,74.97
2018-02-09T13:23:59.384Z,97.90
2018-02-09T13:26:26.902Z,97.07
2018-02-09T13:28:59.447Z,101.00
2018-02-09T13:31:26.970Z,105.03
2018-02-09T13:33:55.277Z,106.78
2018-02-09T13:36:34.521Z,103.00
2018-02-09T13:39:02.065Z,99.70
2018-02-09T13:41:29.590Z,83.40
2018-02-09T13:43:57.901Z,94.75
2018-02-09T13:46:25.425Z,100.93
2018-02-09T13:48:53.712Z,98.65
2018-02-09T13:51:22.018Z,92.68
2018-02-09T13:53:49.545Z,79.95
2018-02-09T13:56:17.085Z,82.35
2018-02-09T13:58:44.606Z,96.85
2018-02-09T14:01:12.151Z,119.00
2018-02-09T14:03:39.678Z,88.85
2018-02-09T14:06:08.161Z,110.05
2018-02-09T14:08:35.695Z,104.03
2018-02-09T14:11:03.234Z,90.18
2018-02-09T14:13:30.761Z,107.65
2018-02-09T14:15:59.069Z,130.55
2018-02-09T14:18:26.592Z,104.53
2018-02-09T14:20:54.137Z,91.25
2018-02-09T14:23:22.425Z,99.40
2018-02-09T14:25:49.970Z,80.45
2018-02-09T14:28:17.498Z,69.12
2018-02-09T14:30:45.033Z,74.82
2018-02-09T14:33:12.561Z,66.57
2018-02-09T14:35:40.101Z,70.18
2018-02-09T14:38:08.238Z,61.15
2018-02-09T14:40:35.808Z,70.80
2018-02-09T14:43:03.349Z,57.10
2018-02-09T14:45:30.869Z,58.53
2018-02-09T14:47:58.410Z,57.88
2018-02-09T14:50:25.930Z,78.53
2018-02-09T14:52:53.470Z,67.60
2018-02-09T14:55:21.765Z,69.25
2018-02-09T14:57:50.077Z,63.03
2018-02-09T15:00:17.629Z,65.97
2018-02-09T15:02:45.166Z,63.80
2018-02-09T15:05:13.457Z,77.10
2018-02-09T15:07:40.997Z,71.22
2018-02-09T15:10:09.290Z,89.18
2018-02-09T15:12:37.597Z,84.50
2018-02-09T15:15:05.113Z,94.10
2018-02-09T15:17:32.717Z,113.40
2018-02-09T15:20:00.241Z,88.30
2018-02-09T15:22:27.793Z,123.03
2018-02-09T15:24:55.316Z,107.90
2018-02-09T15:27:22.880Z,90.78
2018-02-09T15:29:50.400Z,109.80
2018-02-09T15:32:18.681Z,108.32
2018-02-09T15:34:46.989Z,123.90
2018-02-09T15:37:14.523Z,131.48
2018-02-09T15:39:42.831Z,114.75
2018-02-09T15:42:10.358Z,130.75
2018-02-09T15:44:38.674Z,121.43
2018-02-09T15:47:06.193Z,125.87
2018-02-09T15:49:34.505Z,124.57
2018-02-09T15:52:02.070Z,134.65
2018-02-09T15:54:29.594Z,124.62
2018-02-09T15:56:57.886Z,135.18
2018-02-09T15:59:25.430Z,125.45
2018-02-09T16:01:53.718Z,131.82
2018-02-09T16:04:22.030Z,140.77
2018-02-09T16:06:49.558Z,135.52
2018-02-09T16:09:17.864Z,130.63
2018-02-09T16:11:45.386Z,135.85
2018-02-09T16:14:13.698Z,130.95
2018-02-09T16:16:41.229Z,157.05
2018-02-09T16:19:09.645Z,143.07
2018-02-09T16:21:37.179Z,119.75
2018-02-09T16:24:04.731Z,113.18
2018-02-09T16:26:33.021Z,127.75
2018-02-09T16:29:00.545Z,128.95
2018-02-09T16:31:28.090Z,130.90
2018-02-09T16:33:55.613Z,135.63
2018-02-09T16:36:23.154Z,122.32
2018-02-09T16:38:51.437Z,123.10
2018-02-09T16:41:19.030Z,130.60
2018-02-09T16:43:46.549Z,113.15
2018-02-09T16:46:14.857Z,115.12
2018-02-09T16:48:42.434Z,104.28
2018-02-09T16:51:09.970Z,96.97
2018-02-09T16:53:37.489Z,90.40
2018-02-09T16:56:05.032Z,113.35
2018-02-09T16:58:32.549Z,123.55
2018-02-09T17:01:00.094Z,95.38
2018-02-09T17:03:28.378Z,84.85
2018-02-09T17:05:56.671Z,109.55
2018-02-09T17:08:24.213Z,89.85
2018-02-09T17:10:52.492Z,82.55
2018-02-09T17:13:20.058Z,86.72
2018-02-09T17:15:48.346Z,90.25
2018-02-09T17:18:15.929Z,123.70
2018-02-09T17:20:43.460Z,121.53
2018-02-09T17:23:11.009Z,123.25
2018-02-09T17:25:39.299Z,100.62
2018-02-09T17:28:07.145Z,129.60
2018-02-09T17:30:35.436Z,106.93
2018-02-09T17:33:03.746Z,95.57
2018-02-09T17:35:31.269Z,83.62
2018-02-09T17:37:59.574Z,86.22
2018-02-09T17:40:27.097Z,83.95
2018-02-09T17:42:55.400Z,68.12
2018-02-09T17:45:22.927Z,92.15
2018-02-09T17:47:50.474Z,107.82
2018-02-09T17:50:18.011Z,117.50
2018-02-09T17:52:45.554Z,91.75
2018-02-09T17:55:13.076Z,105.75
2018-02-09T17:57:41.382Z,97.65
2018-02-09T18:00:08.910Z,91.87
2018-02-09T18:02:36.449Z,76.43
2018-02-09T18:05:03.970Z,90.35
2018-02-09T18:07:31.520Z,89.47
2018-02-09T18:09:59.045Z,100.87
2018-02-09T18:12:26.589Z,121.40
2018-02-09T18:14:54.110Z,106.65
2018-02-09T18:17:21.659Z,124.72
2018-02-09T18:19:49.182Z,114.93
2018-02-09T18:22:16.710Z,104.03
2018-02-09T18:24:44.255Z,108.97
2018-02-09T18:27:11.769Z,93.60
2018-02-09T18:29:40.085Z,111.10
2018-02-09T18:32:07.610Z,112.78
2018-02-09T18:34:35.153Z,102.72
2018-02-09T18:37:02.679Z,106.32
2018-02-09T18:39:30.226Z,98.50
2018-02-09T18:41:57.746Z,92.35
2018-02-09T18:44:25.285Z,98.15
2018-02-09T18:46:52.810Z,88.40
2018-02-09T18:49:20.353Z,78.95
2018-02-09T18:51:48.642Z,100.15
2018-02-09T18:54:16.191Z,101.38
2018-02-09T18:56:44.478Z,92.20
2018-02-09T18:59:12.034Z,105.00
2018-02-09T19:01:40.321Z,90.90
2018-02-09T19:04:08.621Z,88.97
2018-02-09T19:06:36.149Z,79.47
2018-02-09T19:09:04.459Z,86.18
2018-02-09T19:11:32.017Z,89.30
2018-02-09T19:14:00.303Z,90.30
2018-02-09T19:16:27.830Z,85.35
2018-02-09T19:18:56.139Z,85.22
2018-02-09T19:21:23.666Z,80.25
2018-02-09T19:23:51.979Z,77.57
2018-02-09T19:26:19.503Z,76.35
2018-02-09T19:28:47.809Z,67.07
2018-02-09T19:31:15.324Z,70.10
2018-02-09T19:33:42.870Z,92.47
2018-02-09T19:36:10.393Z,85.75
2018-02-09T19:38:37.937Z,92.70
2018-02-09T19:41:06.222Z,85.47
2018-02-09T19:43:33.765Z,90.97
2018-02-09T19:46:02.050Z,77.80
2018-02-09T19:48:30.353Z,77.50
2018-02-09T19:50:57.873Z,97.28
2018-02-09T19:53:26.206Z,83.18
2018-02-09T19:55:53.758Z,84.70
2018-02-09T19:58:21.273Z,85.87
2018-02-09T20:00:49.597Z,79.95
2018-02-09T20:03:17.118Z,67.93
2018-02-09T20:05:45.424Z,67.80
2018-02-09T20:08:12.940Z,62.53
2018-02-09T20:10:41.274Z,75.28
2018-02-09T20:13:08.794Z,70.05
2018-02-09T20:15:37.128Z,75.32
2018-02-09T20:18:04.641Z,69.07
2018-02-09T20:20:32.949Z,68.20
2018-02-09T20:23:00.473Z,59.97
2018-02-09T20:25:28.786Z,70.62
2018-02-09T20:27:56.314Z,58.25
2018-02-09T20:30:23.879Z,61.33
2018-02-09T20:32:52.169Z,89.78
2018-02-09T20:35:20.562Z,96.22
2018-02-09T20:37:48.086Z,91.72
2018-02-09T20:40:16.403Z,97.97
2018-02-09T20:42:43.926Z,82.43
2018-02-09T20:45:12.237Z,75.12
2018-02-09T20:47:39.757Z,63.08
2018-02-09T20:50:08.114Z,105.05
2018-02-09T20:52:35.643Z,80.82
2018-02-09T20:55:03.168Z,84.22
2018-02-09T20:57:31.474Z,96.03
2018-02-09T20:59:58.999Z,99.55
2018-02-09T21:02:27.316Z,84.62
2018-02-09T21:04:54.841Z,71.12
2018-02-09T21:07:23.146Z,71.18
2018-02-09T21:09:50.664Z,62.62
2018-02-09T21:12:18.269Z,52.08
2018-02-09T21:14:45.786Z,48.47
2018-02-09T21:17:13.327Z,87.22
2018-02-09T21:19:40.896Z,96.68
2018-02-09T21:22:08.441Z,88.80
2018-02-09T21:24:35.966Z,92.88
2018-02-09T21:27:03.517Z,81.80
2018-02-09T21:29:31.043Z,82.57
2018-02-09T21:31:58.562Z,98.12
2018-02-09T21:34:26.102Z,95.85
2018-02-09T21:36:53.629Z,104.70
2018-02-09T21:39:21.941Z,102.65
2018-02-09T21:41:49.466Z,118.25
2018-02-09T21:44:17.009Z,107.60
2018-02-09T21:46:44.525Z,97.68
2018-02-09T21:49:12.088Z,94.47
2018-02-09T21:51:39.632Z,111.43
2018-02-09T21:54:07.169Z,98.47
2018-02-09T21:56:34.690Z,100.80
2018-02-09T21:59:02.224Z,90.53
2018-02-09T22:01:29.749Z,98.97
2018-02-09T22:03:57.296Z,90.55
2018-02-09T22:06:24.834Z,90.25
2018-02-09T22:08:52.377Z,83.25
2018-02-09T22:11:19.902Z,86.78
2018-02-09T22:13:48.210Z,74.55
2018-02-09T22:16:15.916Z,82.78
2018-02-09T22:18:43.460Z,93.12
2018-02-09T22:21:10.981Z,91.95
2018-02-09T22:23:38.521Z,100.70
2018-02-09T22:26:06.811Z,99.57
2018-02-09T22:28:35.121Z,102.55
2018-02-09T22:31:02.641Z,88.68
2018-02-09T22:33:30.193Z,75.60
2018-02-09T22:35:57.798Z,79.18
2018-02-09T22:38:25.313Z,99.10
2018-02-09T22:40:52.852Z,81.15
2018-02-09T22:43:20.374Z,72.32
2018-02-09T22:45:47.909Z,74.00
2018-02-09T22:48:16.193Z,74.35
2018-02-09T22:50:44.498Z,73.95
2018-02-09T22:53:12.017Z,67.15
2018-02-09T22:55:39.562Z,74.12
2018-02-09T22:58:07.085Z,59.80
2018-02-09T23:00:34.621Z,60.78
2018-02-09T23:03:02.154Z,71.35
2018-02-09T23:05:29.697Z,73.20
2018-02-09T23:07:57.212Z,68.10
2018-02-09T23:10:24.754Z,74.30
2018-02-09T23:12:53.036Z,66.85
2018-02-09T23:15:21.346Z,67.68
2018-02-09T23:17:48.866Z,62.33
2018-02-09T23:20:17.164Z,81.25
2018-02-09T23:22:44.689Z,65.90
2018-02-09T23:25:12.236Z,95.50
2018-02-09T23:27:39.761Z,106.25
2018-02-09T23:30:07.285Z,87.72
2018-02-09T23:32:35.589Z,87.95
2018-02-09T23:35:03.906Z,86.85
2018-02-09T23:37:33.034Z,71.65
2018-02-09T23:40:01.340Z,72.97
2018-02-09T23:42:29.015Z,92.93
2018-02-09T23:44:56.588Z,93.18
2018-02-09T23:47:24.508Z,91.70
2018-02-09T23:49:52.277Z,96.55
2018-02-09T23:52:19.846Z,121.22
2018-02-09T23:54:48.374Z,81.93
2018-02-09T23:57:16.221Z,82.30
2018-02-09T23:59:43.789Z,105.50
